Terminal Aerodrome Forecast
Issued by NWS Grand Forks, ND

Home | Current Version | Previous Version | Text Only | Print | Product List | Glossary Off
Versions: 1 2 3 4 5 6 7 8 9 10 11 12 13 14 15 16 17 18 19 20 21 22

453
FTUS43 KFGF 201616 AAD
TAFGFK
TAF AMD
KGFK 201616Z 2016/2112 VRB05KT 1SM BR VCSH OVC100
      TEMPO 2016/2017 1/4SM FG BKN020
     FM201700 25008KT 4SM BR VCSH BKN035
     FM201900 25012KT P6SM VCSH OVC035
     FM202200 27013KT P6SM BKN040
     FM210700 23006KT P6SM SCT100=

USA.gov is the U.S. government's official web portal to all federal, state and local government web resources and services.